Time,TemperatureF,DewpointF,PressureIn,WindDirection,WindDirectionDegrees,WindSpeedMPH,WindSpeedGustMPH,Humidity,HourlyPrecipIn,Conditions,Clouds,dailyrainin,SoftwareType,DateUTC
2013-08-16 00:03:00,53.1,51.0,29.97,SW,228,0.0,0.0,93,0.00,,,0.00,weatherlink.com 1.10,2013-08-16 04:03:00,
2013-08-16 00:18:00,52.7,51.0,29.97,SW,229,0.0,0.0,95,0.00,,,0.00,weatherlink.com 1.10,2013-08-16 04:18:00,
2013-08-16 00:33:00,52.3,51.0,29.97,WSW,240,0.0,0.0,94,0.00,,,0.00,weatherlink.com 1.10,2013-08-16 04:33:00,
2013-08-16 00:49:00,51.8,51.0,29.97,WSW,240,0.0,0.0,95,0.00,,,0.00,weatherlink.com 1.10,2013-08-16 04:49:00,
2013-08-16 01:04:00,51.4,50.0,29.97,WSW,254,0.0,1.0,95,0.00,,,0.00,weatherlink.com 1.10,2013-08-16 05:04:00,
2013-08-16 01:34:00,50.7,49.0,29.97,WSW,250,0.0,0.0,95,0.00,,,0.00,weatherlink.com 1.10,2013-08-16 05:34:00,
2013-08-16 01:49:00,50.4,49.0,29.97,WSW,252,0.0,0.0,95,0.00,,,0.00,weatherlink.com 1.10,2013-08-16 05:49:00,
2013-08-16 02:04:00,50.2,49.0,29.97,WSW,252,0.0,0.0,95,0.00,,,0.00,weatherlink.com 1.10,2013-08-16 06:04:00,
2013-08-16 02:19:00,50.1,49.0,29.97,WSW,250,0.0,0.0,95,0.00,,,0.00,weatherlink.com 1.10,2013-08-16 06:19:00,
2013-08-16 02:34:00,49.7,48.0,29.97,WSW,250,0.0,0.0,95,0.00,,,0.00,weatherlink.com 1.10,2013-08-16 06:34:00,
2013-08-16 02:49:00,49.2,48.0,29.97,WSW,250,0.0,0.0,95,0.00,,,0.00,weatherlink.com 1.10,2013-08-16 06:49:00,
2013-08-16 03:04:00,49.0,48.0,29.97,WSW,250,0.0,0.0,95,0.00,,,0.00,weatherlink.com 1.10,2013-08-16 07:04:00,
2013-08-16 03:19:00,49.1,48.0,29.97,WSW,250,0.0,0.0,96,0.00,,,0.00,weatherlink.com 1.10,2013-08-16 07:19:00,
2013-08-16 03:34:00,48.9,48.0,29.98,WSW,250,0.0,0.0,96,0.00,,,0.00,weatherlink.com 1.10,2013-08-16 07:34:00,
2013-08-16 03:49:00,48.7,48.0,29.98,WSW,248,0.0,0.0,96,0.00,,,0.00,weatherlink.com 1.10,2013-08-16 07:49:00,
2013-08-16 04:04:00,48.6,48.0,29.98,WSW,254,0.0,1.0,96,0.00,,,0.00,weatherlink.com 1.10,2013-08-16 08:04:00,
2013-08-16 04:19:00,48.3,47.0,29.98,WSW,246,0.0,1.0,96,0.00,,,0.00,weatherlink.com 1.10,2013-08-16 08:19:00,
2013-08-16 04:34:00,47.9,47.0,29.98,WSW,252,0.0,1.0,95,0.00,,,0.00,weatherlink.com 1.10,2013-08-16 08:34:00,
2013-08-16 04:49:00,47.4,46.0,29.99,SW,233,0.0,1.0,96,0.00,,,0.00,weatherlink.com 1.10,2013-08-16 08:49:00,
2013-08-16 05:04:00,47.1,46.0,29.99,WSW,245,0.0,1.0,96,0.00,,,0.00,weatherlink.com 1.10,2013-08-16 09:04:00,
2013-08-16 05:19:00,46.8,46.0,29.99,WSW,246,0.0,0.0,96,0.00,,,0.00,weatherlink.com 1.10,2013-08-16 09:19:00,
2013-08-16 05:34:00,46.6,46.0,29.99,WSW,246,0.0,0.0,96,0.00,,,0.00,weatherlink.com 1.10,2013-08-16 09:34:00,
2013-08-16 05:49:00,46.3,45.0,30.00,WSW,246,0.0,0.0,96,0.00,,,0.00,weatherlink.com 1.10,2013-08-16 09:49:00,
2013-08-16 06:04:00,46.0,45.0,30.01,WSW,246,0.0,0.0,96,0.00,,,0.00,weatherlink.com 1.10,2013-08-16 10:04:00,
2013-08-16 06:19:00,45.8,45.0,30.01,WSW,246,0.0,0.0,97,0.00,,,0.00,weatherlink.com 1.10,2013-08-16 10:19:00,
2013-08-16 06:34:00,45.6,45.0,30.01,WSW,246,0.0,0.0,97,0.00,,,0.00,weatherlink.com 1.10,2013-08-16 10:34:00,
2013-08-16 06:49:00,45.7,45.0,30.01,WSW,239,0.0,0.0,97,0.00,,,0.00,weatherlink.com 1.10,2013-08-16 10:49:00,
2013-08-16 07:04:00,46.8,46.0,30.02,WSW,239,0.0,0.0,96,0.00,,,0.00,weatherlink.com 1.10,2013-08-16 11:04:00,
2013-08-16 07:19:00,48.6,47.0,30.02,WSW,239,0.0,0.0,94,0.00,,,0.00,weatherlink.com 1.10,2013-08-16 11:19:00,
2013-08-16 07:34:00,49.6,47.0,30.02,WSW,238,0.0,0.0,92,0.00,,,0.00,weatherlink.com 1.10,2013-08-16 11:34:00,
2013-08-16 07:49:00,51.0,48.0,30.02,WSW,237,0.0,0.0,90,0.00,,,0.00,weatherlink.com 1.10,2013-08-16 11:49:00,
2013-08-16 08:04:00,53.3,51.0,30.02,WSW,237,0.0,0.0,90,0.00,,,0.00,weatherlink.com 1.10,2013-08-16 12:04:00,
2013-08-16 08:19:00,57.4,53.0,30.03,WSW,237,0.0,0.0,84,0.00,,,0.00,weatherlink.com 1.10,2013-08-16 12:19:00,
2013-08-16 08:34:00,59.2,54.0,30.03,NW,323,0.0,0.0,82,0.00,,,0.00,weatherlink.com 1.10,2013-08-16 12:34:00,
2013-08-16 08:49:00,59.2,54.0,30.03,NNE,33,0.0,1.0,83,0.00,,,0.00,weatherlink.com 1.10,2013-08-16 12:49:00,
2013-08-16 09:05:00,58.3,54.0,30.04,ENE,65,2.0,2.0,86,0.00,,,0.00,weatherlink.com 1.10,2013-08-16 13:05:00,
2013-08-16 09:20:00,59.1,55.0,30.04,NE,50,1.0,2.0,85,0.00,,,0.00,weatherlink.com 1.10,2013-08-16 13:20:00,
2013-08-16 09:35:00,59.9,55.0,30.04,ENE,59,1.0,2.0,85,0.00,,,0.00,weatherlink.com 1.10,2013-08-16 13:35:00,
2013-08-16 09:50:00,60.9,56.0,30.04,ENE,71,1.0,1.0,84,0.00,,,0.00,weatherlink.com 1.10,2013-08-16 13:50:00,
2013-08-16 10:05:00,61.4,57.0,30.04,East,84,2.0,2.0,84,0.00,,,0.00,weatherlink.com 1.10,2013-08-16 14:05:00,
2013-08-16 10:20:00,62.0,57.0,30.04,ENE,69,1.0,2.0,84,0.00,,,0.00,weatherlink.com 1.10,2013-08-16 14:20:00,
2013-08-16 10:35:00,62.8,58.0,30.04,North,353,4.0,5.0,84,0.00,,,0.00,weatherlink.com 1.10,2013-08-16 14:35:00,
2013-08-16 10:50:00,64.3,59.0,30.04,ENE,67,2.0,3.0,82,0.00,,,0.00,weatherlink.com 1.10,2013-08-16 14:50:00,
2013-08-16 11:05:00,65.0,60.0,30.04,NE,36,3.0,3.0,83,0.00,,,0.00,weatherlink.com 1.10,2013-08-16 15:05:00,
2013-08-16 11:20:00,65.7,60.0,30.04,NNE,32,3.0,3.0,82,0.00,,,0.00,weatherlink.com 1.10,2013-08-16 15:20:00,
2013-08-16 11:35:00,66.5,60.0,30.05,NNE,18,3.0,3.0,80,0.00,,,0.00,weatherlink.com 1.10,2013-08-16 15:35:00,
2013-08-16 11:50:00,67.1,61.0,30.04,NNE,24,2.0,3.0,80,0.00,,,0.00,weatherlink.com 1.10,2013-08-16 15:50:00,
2013-08-16 12:05:00,67.8,62.0,30.04,NE,36,2.0,2.0,81,0.00,,,0.00,weatherlink.com 1.10,2013-08-16 16:05:00,
2013-08-16 12:20:00,68.6,61.0,30.04,NE,42,2.0,2.0,76,0.00,,,0.00,weatherlink.com 1.10,2013-08-16 16:20:00,
2013-08-16 12:35:00,69.2,61.0,30.04,NNE,12,3.0,5.0,74,0.00,,,0.00,weatherlink.com 1.10,2013-08-16 16:35:00,
2013-08-16 12:50:00,69.6,62.0,30.04,North,8,3.0,5.0,76,0.00,,,0.00,weatherlink.com 1.10,2013-08-16 16:50:00,
2013-08-16 13:05:00,70.2,63.0,30.03,North,356,3.0,5.0,78,0.00,,,0.00,weatherlink.com 1.10,2013-08-16 17:05:00,
2013-08-16 13:20:00,71.1,62.0,30.03,North,354,4.0,4.0,73,0.00,,,0.00,weatherlink.com 1.10,2013-08-16 17:20:00,
2013-08-16 13:35:00,71.6,63.0,30.03,NNE,12,3.0,5.0,74,0.00,,,0.00,weatherlink.com 1.10,2013-08-16 17:35:00,
2013-08-16 13:50:00,71.5,63.0,30.03,North,356,2.0,4.0,74,0.00,,,0.00,weatherlink.com 1.10,2013-08-16 17:50:00,
2013-08-16 14:05:00,72.8,63.0,30.03,NNE,33,2.0,3.0,71,0.00,,,0.00,weatherlink.com 1.10,2013-08-16 18:05:00,
2013-08-16 14:20:00,73.9,59.0,30.03,NNE,33,2.0,3.0,61,0.00,,,0.00,weatherlink.com 1.10,2013-08-16 18:20:00,
2013-08-16 14:35:00,74.0,61.0,30.03,North,359,2.0,3.0,64,0.00,,,0.00,weatherlink.com 1.10,2013-08-16 18:35:00,
2013-08-16 15:05:00,74.0,58.0,30.02,NE,56,2.0,6.0,57,0.00,,,0.00,weatherlink.com 1.10,2013-08-16 19:05:00,
2013-08-16 15:20:00,75.9,56.0,30.02,East,101,2.0,2.0,51,0.00,,,0.00,weatherlink.com 1.10,2013-08-16 19:20:00,
2013-08-16 15:35:00,76.1,57.0,30.02,NNE,27,3.0,5.0,51,0.00,,,0.00,weatherlink.com 1.10,2013-08-16 19:35:00,
2013-08-16 15:50:00,74.9,59.0,30.02,NNE,22,3.0,5.0,58,0.00,,,0.00,weatherlink.com 1.10,2013-08-16 19:50:00,
2013-08-16 16:05:00,75.2,60.0,30.02,NNE,12,3.0,4.0,60,0.00,,,0.00,weatherlink.com 1.10,2013-08-16 20:05:00,
2013-08-16 16:21:00,75.4,59.0,30.02,NNE,20,3.0,5.0,58,0.00,,,0.00,weatherlink.com 1.10,2013-08-16 20:21:00,
2013-08-16 16:36:00,75.8,60.0,30.02,North,356,2.0,3.0,58,0.00,,,0.00,weatherlink.com 1.10,2013-08-16 20:36:00,
2013-08-16 16:51:00,76.2,57.0,30.02,NNE,22,3.0,3.0,52,0.00,,,0.00,weatherlink.com 1.10,2013-08-16 20:51:00,
2013-08-16 17:06:00,76.0,59.0,30.02,NNE,13,2.0,4.0,56,0.00,,,0.00,weatherlink.com 1.10,2013-08-16 21:06:00,
2013-08-16 17:21:00,76.3,60.0,30.02,North,11,1.0,2.0,57,0.00,,,0.00,weatherlink.com 1.10,2013-08-16 21:21:00,
2013-08-16 17:36:00,75.5,59.0,30.02,ESE,123,2.0,5.0,56,0.00,,,0.00,weatherlink.com 1.10,2013-08-16 21:36:00,
2013-08-16 17:51:00,75.7,61.0,30.02,SE,132,3.0,6.0,61,0.00,,,0.00,weatherlink.com 1.10,2013-08-16 21:51:00,
2013-08-16 18:06:00,75.6,59.0,30.02,SSE,159,2.0,7.0,56,0.00,,,0.00,weatherlink.com 1.10,2013-08-16 22:06:00,
2013-08-16 18:21:00,74.9,61.0,30.02,SE,141,4.0,4.0,62,0.00,,,0.00,weatherlink.com 1.10,2013-08-16 22:21:00,
2013-08-16 18:36:00,75.9,59.0,30.02,SE,136,3.0,4.0,56,0.00,,,0.00,weatherlink.com 1.10,2013-08-16 22:36:00,
2013-08-16 18:51:00,74.9,58.0,30.02,SE,135,0.0,2.0,56,0.00,,,0.00,weatherlink.com 1.10,2013-08-16 22:51:00,
2013-08-16 19:06:00,74.1,60.0,30.02,SSW,210,0.0,2.0,61,0.00,,,0.00,weatherlink.com 1.10,2013-08-16 23:06:00,
2013-08-16 19:21:00,75.3,59.0,30.03,SSE,159,1.0,3.0,57,0.00,,,0.00,weatherlink.com 1.10,2013-08-16 23:21:00,
2013-08-16 19:36:00,74.4,60.0,30.03,South,189,0.0,4.0,61,0.00,,,0.00,weatherlink.com 1.10,2013-08-16 23:36:00,
2013-08-16 19:51:00,71.8,59.0,30.03,SSW,210,0.0,1.0,64,0.00,,,0.00,weatherlink.com 1.10,2013-08-16 23:51:00,
2013-08-16 20:06:00,69.0,60.0,30.04,SSW,212,0.0,0.0,72,0.00,,,0.00,weatherlink.com 1.10,2013-08-17 00:06:00,
2013-08-16 20:21:00,66.9,59.0,30.04,SW,214,0.0,0.0,76,0.00,,,0.00,weatherlink.com 1.10,2013-08-17 00:21:00,
2013-08-16 20:36:00,65.4,59.0,30.04,SW,214,0.0,1.0,80,0.00,,,0.00,weatherlink.com 1.10,2013-08-17 00:36:00,
2013-08-16 20:51:00,64.2,59.0,30.04,SW,219,0.0,0.0,82,0.00,,,0.00,weatherlink.com 1.10,2013-08-17 00:51:00,
2013-08-16 21:06:00,63.2,58.0,30.04,SW,219,0.0,0.0,84,0.00,,,0.00,weatherlink.com 1.10,2013-08-17 01:06:00,
2013-08-16 21:21:00,62.6,58.0,30.05,SW,229,0.0,0.0,85,0.00,,,0.00,weatherlink.com 1.10,2013-08-17 01:21:00,
2013-08-16 21:36:00,61.5,58.0,30.05,SW,229,0.0,0.0,87,0.00,,,0.00,weatherlink.com 1.10,2013-08-17 01:36:00,
2013-08-16 21:51:00,60.8,57.0,30.05,WSW,242,0.0,0.0,88,0.00,,,0.00,weatherlink.com 1.10,2013-08-17 01:51:00,
2013-08-16 22:06:00,60.1,57.0,30.06,WSW,242,0.0,0.0,88,0.00,,,0.00,weatherlink.com 1.10,2013-08-17 02:06:00,
2013-08-16 22:21:00,59.6,56.0,30.05,WSW,242,0.0,0.0,88,0.00,,,0.00,weatherlink.com 1.10,2013-08-17 02:21:00,
2013-08-16 22:36:00,59.2,56.0,30.06,WSW,239,0.0,1.0,89,0.00,,,0.00,weatherlink.com 1.10,2013-08-17 02:36:00,
2013-08-16 22:51:00,58.6,56.0,30.05,WSW,239,0.0,0.0,90,0.00,,,0.00,weatherlink.com 1.10,2013-08-17 02:51:00,
2013-08-16 23:06:00,58.1,55.0,30.06,WSW,239,0.0,0.0,90,0.00,,,0.00,weatherlink.com 1.10,2013-08-17 03:06:00,
2013-08-16 23:21:00,57.8,55.0,30.06,SW,236,0.0,0.0,91,0.00,,,0.00,weatherlink.com 1.10,2013-08-17 03:21:00,
2013-08-16 23:36:00,58.4,56.0,30.07,SSW,209,0.0,1.0,93,0.00,,,0.00,weatherlink.com 1.10,2013-08-17 03:36:00,
2013-08-16 23:51:00,58.2,56.0,30.07,WSW,257,0.0,1.0,92,0.00,,,0.00,weatherlink.com 1.10,2013-08-17 03:51:00,